Time;durP1;ratioP1;P1;durP2;ratioP2;P2;SDS_P1;SDS_P2;PMS_P1;PMS_P2;Temp;Humidity;BMP_temperature;BMP_pressure;BME280_temperature;BME280_humidity;BME280_pressure;Samples;Min_cycle;Max_cycle;Signal;HPM_P1;HPM_P2
2022/07/24 00:01:45;;;;;;;6.35;2.90;;;;;;;;;;10048992;28;20075;-67
2022/07/24 00:06:41;;;;;;;6.30;2.42;;;;;;;;;;10066182;28;20063;-67
2022/07/24 00:11:38;;;;;;;4.88;2.80;;;;;;;;;;10045450;28;20067;-67
2022/07/24 00:16:34;;;;;;;8.10;3.25;;;;;;;;;;10059995;28;20422;-67
2022/07/24 00:21:30;;;;;;;7.25;3.47;;;;;;;;;;10036254;28;20067;-67
2022/07/24 00:26:27;;;;;;;10.15;4.32;;;;;;;;;;10054488;28;20062;-67
2022/07/24 00:31:23;;;;;;;7.07;3.95;;;;;;;;;;10036539;28;20646;-67
2022/07/24 00:36:20;;;;;;;7.53;3.72;;;;;;;;;;10042630;28;20055;-67
2022/07/24 00:41:16;;;;;;;8.63;3.80;;;;;;;;;;10036446;28;20091;-67
2022/07/24 00:46:12;;;;;;;8.05;4.03;;;;;;;;;;10061137;28;20556;-67
2022/07/24 00:51:11;;;;;;;6.65;3.50;;;;;;;;;;10074907;28;20420;-67
2022/07/24 00:56:07;;;;;;;6.25;3.67;;;;;;;;;;10066366;28;20505;-67
2022/07/24 01:01:03;;;;;;;5.82;3.10;;;;;;;;;;10073501;28;20134;-67
2022/07/24 01:06:00;;;;;;;8.40;4.38;;;;;;;;;;10073358;28;20047;-67
2022/07/24 01:10:56;;;;;;;9.50;5.45;;;;;;;;;;10061595;28;20048;-67
2022/07/24 01:15:52;;;;;;;12.88;6.72;;;;;;;;;;10057350;28;20039;-67
2022/07/24 01:20:49;;;;;;;10.00;5.53;;;;;;;;;;10051107;28;20047;-68
2022/07/24 01:25:46;;;;;;;10.00;6.25;;;;;;;;;;10054897;28;20040;-67
2022/07/24 01:30:43;;;;;;;8.93;5.05;;;;;;;;;;10035025;28;20048;-68
2022/07/24 01:35:41;;;;;;;8.27;3.60;;;;;;;;;;10053416;28;20409;-67
2022/07/24 01:40:38;;;;;;;6.70;3.70;;;;;;;;;;10034038;28;20071;-68
2022/07/24 01:45:34;;;;;;;6.28;3.05;;;;;;;;;;10054034;28;20051;-67
2022/07/24 01:50:31;;;;;;;8.00;4.15;;;;;;;;;;10095928;28;20047;-69
2022/07/24 01:55:27;;;;;;;8.00;3.75;;;;;;;;;;10077949;28;20048;-68
2022/07/24 02:00:24;;;;;;;6.82;3.65;;;;;;;;;;10042145;28;20071;-69
2022/07/24 02:05:20;;;;;;;7.57;3.25;;;;;;;;;;10060102;28;20114;-69
2022/07/24 02:10:16;;;;;;;5.15;3.20;;;;;;;;;;10056563;28;20113;-69
2022/07/24 02:15:13;;;;;;;5.97;3.58;;;;;;;;;;10078621;28;20479;-69
2022/07/24 02:20:09;;;;;;;6.82;3.72;;;;;;;;;;10066048;28;20138;-69
2022/07/24 02:25:07;;;;;;;6.75;3.85;;;;;;;;;;10077340;28;20726;-69
2022/07/24 02:30:08;;;;;;;9.18;3.90;;;;;;;;;;10080058;28;20130;-69
2022/07/24 02:35:04;;;;;;;6.80;4.72;;;;;;;;;;10057451;28;20051;-69
2022/07/24 02:40:03;;;;;;;6.80;4.13;;;;;;;;;;10072024;28;20569;-69
2022/07/24 02:44:59;;;;;;;6.45;3.55;;;;;;;;;;10056328;29;20102;-69
2022/07/24 02:49:56;;;;;;;7.22;3.78;;;;;;;;;;10053243;28;20102;-69
2022/07/24 02:54:52;;;;;;;6.43;3.80;;;;;;;;;;10060415;28;20117;-69
2022/07/24 02:59:51;;;;;;;8.02;3.88;;;;;;;;;;10090359;28;20043;-69
2022/07/24 03:04:48;;;;;;;7.40;4.57;;;;;;;;;;10090546;28;20044;-69
2022/07/24 03:09:44;;;;;;;8.77;3.58;;;;;;;;;;10057466;28;20046;-69
2022/07/24 03:14:40;;;;;;;7.78;3.75;;;;;;;;;;10088710;28;20090;-69
2022/07/24 03:19:37;;;;;;;6.82;3.75;;;;;;;;;;10038591;28;20107;-69
2022/07/24 03:24:33;;;;;;;6.45;4.10;;;;;;;;;;10051183;28;20090;-69
2022/07/24 03:29:30;;;;;;;7.05;3.97;;;;;;;;;;10077735;28;20075;-69
2022/07/24 03:34:26;;;;;;;8.60;4.35;;;;;;;;;;10057746;28;20796;-69
2022/07/24 03:39:23;;;;;;;8.25;4.28;;;;;;;;;;10082794;28;20047;-69
2022/07/24 03:44:19;;;;;;;8.20;4.28;;;;;;;;;;10084856;28;20047;-69
2022/07/24 03:49:15;;;;;;;7.82;4.28;;;;;;;;;;10070248;28;20040;-69
2022/07/24 03:54:12;;;;;;;8.35;4.25;;;;;;;;;;10047208;28;20054;-69
2022/07/24 03:59:09;;;;;;;8.82;4.03;;;;;;;;;;10052992;28;20792;-69
2022/07/24 04:04:05;;;;;;;8.75;4.47;;;;;;;;;;10045589;28;20102;-69
2022/07/24 04:09:03;;;;;;;5.85;3.65;;;;;;;;;;10057340;28;20099;-69
2022/07/24 04:14:00;;;;;;;6.85;3.75;;;;;;;;;;10039247;28;20449;-69
2022/07/24 04:18:56;;;;;;;5.90;3.72;;;;;;;;;;10037311;28;20434;-69
2022/07/24 04:23:52;;;;;;;6.18;3.70;;;;;;;;;;10095543;28;20039;-69
2022/07/24 04:28:49;;;;;;;6.53;3.35;;;;;;;;;;10037931;28;20075;-69
2022/07/24 04:33:45;;;;;;;6.22;3.90;;;;;;;;;;10038877;28;20047;-69
2022/07/24 04:38:41;;;;;;;6.07;3.88;;;;;;;;;;10035802;28;20048;-69
2022/07/24 04:43:38;;;;;;;7.75;3.72;;;;;;;;;;10040587;28;20485;-70
2022/07/24 04:48:35;;;;;;;7.60;4.05;;;;;;;;;;10074370;28;20098;-69
2022/07/24 04:53:31;;;;;;;6.53;3.72;;;;;;;;;;10064158;28;20070;-69
2022/07/24 04:58:27;;;;;;;6.10;3.38;;;;;;;;;;10073114;28;20055;-69
2022/07/24 05:03:24;;;;;;;8.18;4.10;;;;;;;;;;10063259;28;20066;-69
2022/07/24 05:08:20;;;;;;;5.55;3.80;;;;;;;;;;10074254;28;20126;-69
2022/07/24 05:13:17;;;;;;;7.50;3.75;;;;;;;;;;10052780;28;20522;-69
2022/07/24 05:18:13;;;;;;;5.97;3.55;;;;;;;;;;10074115;28;20055;-69
2022/07/24 05:23:09;;;;;;;6.22;2.95;;;;;;;;;;10043795;28;20067;-69
2022/07/24 05:28:06;;;;;;;5.55;3.28;;;;;;;;;;10064450;28;20054;-69
2022/07/24 05:33:02;;;;;;;8.15;3.88;;;;;;;;;;10042031;28;20569;-68
2022/07/24 05:37:58;;;;;;;6.93;3.20;;;;;;;;;;10063205;28;20091;-68
2022/07/24 05:42:55;;;;;;;7.10;2.80;;;;;;;;;;10081209;28;20051;-69
2022/07/24 05:47:51;;;;;;;6.05;3.25;;;;;;;;;;10051382;28;20047;-69
2022/07/24 05:52:47;;;;;;;5.85;3.25;;;;;;;;;;10057108;28;20106;-69
2022/07/24 05:57:44;;;;;;;8.63;2.63;;;;;;;;;;10046542;28;20068;-69
2022/07/24 06:02:41;;;;;;;4.80;2.75;;;;;;;;;;10042008;28;20573;-69
2022/07/24 06:07:37;;;;;;;4.82;2.20;;;;;;;;;;10092490;28;20089;-69
2022/07/24 06:12:33;;;;;;;5.28;2.10;;;;;;;;;;10062812;28;20047;-69
2022/07/24 06:17:30;;;;;;;6.03;2.63;;;;;;;;;;10076432;28;20106;-67
2022/07/24 06:22:26;;;;;;;5.90;2.15;;;;;;;;;;10063016;28;20501;-67
2022/07/24 06:27:22;;;;;;;5.03;2.35;;;;;;;;;;10075048;28;20055;-67
2022/07/24 06:32:18;;;;;;;5.82;1.95;;;;;;;;;;10051714;28;20044;-67
2022/07/24 06:37:15;;;;;;;4.10;1.52;;;;;;;;;;10073792;28;20079;-67
2022/07/24 06:42:15;;;;;;;5.07;2.13;;;;;;;;;;10046107;28;20083;-67
2022/07/24 06:47:11;;;;;;;3.85;1.70;;;;;;;;;;10067362;28;20126;-67
2022/07/24 06:52:08;;;;;;;7.90;2.58;;;;;;;;;;10039477;28;20462;-67
2022/07/24 06:57:04;;;;;;;4.20;1.77;;;;;;;;;;10065696;28;20048;-68
2022/07/24 07:02:00;;;;;;;4.57;1.88;;;;;;;;;;10039716;28;20063;-67
2022/07/24 07:06:57;;;;;;;4.95;1.73;;;;;;;;;;10054388;28;20062;-67
2022/07/24 07:11:53;;;;;;;3.28;1.48;;;;;;;;;;10039146;28;20047;-67
2022/07/24 07:16:49;;;;;;;4.28;2.03;;;;;;;;;;10053491;28;20058;-67
2022/07/24 07:21:45;;;;;;;6.55;2.95;;;;;;;;;;10038716;28;20047;-67
2022/07/24 07:26:42;;;;;;;5.47;1.70;;;;;;;;;;10068206;28;20063;-67
2022/07/24 07:31:38;;;;;;;5.05;1.40;;;;;;;;;;10075150;28;20074;-67
2022/07/24 07:36:35;;;;;;;3.55;1.58;;;;;;;;;;10066581;28;20529;-67
2022/07/24 07:41:31;;;;;;;3.55;1.55;;;;;;;;;;10072806;28;20048;-67
2022/07/24 07:46:29;;;;;;;3.58;1.45;;;;;;;;;;10064122;28;20102;-67
2022/07/24 07:51:25;;;;;;;3.53;1.52;;;;;;;;;;10058144;28;20079;-67
2022/07/24 07:56:21;;;;;;;4.55;1.73;;;;;;;;;;10063733;28;20051;-67
2022/07/24 08:01:18;;;;;;;4.93;1.95;;;;;;;;;;10048689;28;20051;-68
2022/07/24 08:06:14;;;;;;;5.30;1.77;;;;;;;;;;10062747;28;20051;-67
2022/07/24 08:11:11;;;;;;;6.10;2.28;;;;;;;;;;10045010;28;20072;-67
2022/07/24 08:16:07;;;;;;;4.32;1.77;;;;;;;;;;10061544;28;20075;-68
2022/07/24 08:21:04;;;;;;;3.97;1.50;;;;;;;;;;10042835;28;20461;-68
2022/07/24 08:26:00;;;;;;;4.45;2.08;;;;;;;;;;10047532;28;20568;-68
2022/07/24 08:30:56;;;;;;;3.10;1.58;;;;;;;;;;10036557;28;20135;-68
2022/07/24 08:35:53;;;;;;;5.75;2.30;;;;;;;;;;10045558;28;20062;-67
2022/07/24 08:40:49;;;;;;;3.00;1.58;;;;;;;;;;10036092;28;20059;-68
2022/07/24 08:45:46;;;;;;;4.93;1.92;;;;;;;;;;10058067;28;20069;-68
2022/07/24 08:50:43;;;;;;;3.63;1.92;;;;;;;;;;10071597;28;20043;-68
2022/07/24 08:55:40;;;;;;;3.40;1.52;;;;;;;;;;10056926;28;20047;-68
2022/07/24 09:00:36;;;;;;;4.60;2.33;;;;;;;;;;10067847;28;20489;-67
2022/07/24 09:05:34;;;;;;;3.22;1.83;;;;;;;;;;10054252;28;20043;-68
2022/07/24 09:10:33;;;;;;;3.70;1.98;;;;;;;;;;10057992;28;20106;-69
2022/07/24 09:15:30;;;;;;;3.78;2.17;;;;;;;;;;10054996;28;20047;-66
2022/07/24 09:20:29;;;;;;;3.45;2.05;;;;;;;;;;10050218;28;20079;-66
2022/07/24 09:25:28;;;;;;;5.05;2.28;;;;;;;;;;10054452;28;20725;-67
2022/07/24 09:30:27;;;;;;;3.25;1.90;;;;;;;;;;10043028;28;20062;-67
2022/07/24 09:35:35;;;;;;;5.28;2.17;;;;;;;;;;10053793;28;20498;-67
2022/07/24 09:40:32;;;;;;;5.40;2.67;;;;;;;;;;10041043;28;20066;-67
2022/07/24 09:45:29;;;;;;;3.90;2.33;;;;;;;;;;10053744;28;20118;-67
2022/07/24 09:50:29;;;;;;;4.00;1.98;;;;;;;;;;10039615;28;20556;-67
2022/07/24 09:55:26;;;;;;;4.40;2.40;;;;;;;;;;10049512;28;20048;-67
2022/07/24 10:00:22;;;;;;;4.18;2.45;;;;;;;;;;10034711;28;20095;-67
2022/07/24 10:05:20;;;;;;;3.55;2.40;;;;;;;;;;10052717;28;20050;-67
2022/07/24 10:10:17;;;;;;;3.25;2.30;;;;;;;;;;10073197;28;20047;-67
2022/07/24 10:15:14;;;;;;;3.30;2.30;;;;;;;;;;10056007;28;20086;-67
2022/07/24 10:20:12;;;;;;;3.75;2.38;;;;;;;;;;10067617;28;20537;-67
2022/07/24 10:25:29;;;;;;;4.60;2.78;;;;;;;;;;10060556;28;20047;-67
2022/07/24 10:30:26;;;;;;;3.47;2.42;;;;;;;;;;10051551;28;20079;-67
2022/07/24 10:35:24;;;;;;;4.38;3.15;;;;;;;;;;10059191;28;20533;-68
2022/07/24 10:40:27;;;;;;;5.60;2.97;;;;;;;;;;10044858;28;20083;-67
2022/07/24 10:45:28;;;;;;;4.38;3.20;;;;;;;;;;10058859;28;20066;-67
2022/07/24 10:50:44;;;;;;;6.20;5.00;;;;;;;;;;10043399;28;20391;-67
2022/07/24 10:55:40;;;;;;;7.45;6.18;;;;;;;;;;10057690;28;20969;-67
2022/07/24 11:00:38;;;;;;;7.05;5.88;;;;;;;;;;10039800;28;20072;-67
2022/07/24 11:05:38;;;;;;;7.95;6.55;;;;;;;;;;10046423;28;20078;-67
2022/07/24 11:11:03;;;;;;;6.75;6.05;;;;;;;;;;10039542;28;20503;-67
2022/07/24 11:16:12;;;;;;;6.38;5.68;;;;;;;;;;10043223;28;20074;-67
2022/07/24 11:21:09;;;;;;;6.63;6.03;;;;;;;;;;10038843;28;20529;-68
2022/07/24 11:26:25;;;;;;;6.80;6.10;;;;;;;;;;10063883;28;20062;-67
2022/07/24 11:31:21;;;;;;;7.03;6.30;;;;;;;;;;10073932;28;20083;-67
2022/07/24 11:36:19;;;;;;;6.80;6.20;;;;;;;;;;10065110;28;20138;-67
2022/07/24 11:41:15;;;;;;;7.68;6.20;;;;;;;;;;10062178;28;20040;-67
2022/07/24 11:46:11;;;;;;;9.80;5.85;;;;;;;;;;10063144;28;20122;-67
2022/07/24 11:51:08;;;;;;;9.07;6.85;;;;;;;;;;10062017;28;20054;-67
2022/07/24 11:56:24;;;;;;;6.50;5.90;;;;;;;;;;10064258;28;20497;-67
2022/07/24 12:01:23;;;;;;;6.60;6.00;;;;;;;;;;10049008;28;20055;-67
2022/07/24 12:06:20;;;;;;;6.22;5.63;;;;;;;;;;10063444;28;20674;-66
2022/07/24 12:11:22;;;;;;;6.55;5.90;;;;;;;;;;10036764;28;20561;-67
2022/07/24 12:16:25;;;;;;;6.80;6.03;;;;;;;;;;10053237;28;20051;-66
2022/07/24 12:21:23;;;;;;;6.72;6.07;;;;;;;;;;10036577;28;20541;-67
2022/07/24 12:26:19;;;;;;;7.13;6.53;;;;;;;;;;10037418;28;20114;-66
2022/07/24 12:31:15;;;;;;;6.70;5.75;;;;;;;;;;10035646;28;20052;-67
2022/07/24 12:36:12;;;;;;;8.38;6.38;;;;;;;;;;10062041;28;20050;-67
2022/07/24 12:41:08;;;;;;;6.72;6.13;;;;;;;;;;10067344;28;20291;-67
2022/07/24 12:46:06;;;;;;;6.80;6.15;;;;;;;;;;10059836;28;20078;-67
2022/07/24 12:51:02;;;;;;;6.18;5.50;;;;;;;;;;10061120;28;20082;-67
2022/07/24 12:56:03;;;;;;;8.27;6.80;;;;;;;;;;10059217;28;20541;-66
2022/07/24 13:00:59;;;;;;;7.90;6.38;;;;;;;;;;10050418;28;20166;-67
2022/07/24 13:05:56;;;;;;;6.65;5.95;;;;;;;;;;10056021;28;20046;-67
2022/07/24 13:10:52;;;;;;;6.72;5.70;;;;;;;;;;10035698;28;20043;-67
2022/07/24 13:15:48;;;;;;;6.55;5.95;;;;;;;;;;10041739;28;20067;-67
2022/07/24 13:20:45;;;;;;;6.57;5.47;;;;;;;;;;10035752;28;20066;-67
2022/07/24 13:25:42;;;;;;;6.43;5.82;;;;;;;;;;10055782;28;20043;-67
2022/07/24 13:30:38;;;;;;;6.35;5.65;;;;;;;;;;10074570;28;20067;-67
2022/07/24 13:35:35;;;;;;;6.13;5.53;;;;;;;;;;10062470;28;20067;-66
2022/07/24 13:40:32;;;;;;;6.07;5.47;;;;;;;;;;10073162;28;20509;-67
2022/07/24 13:45:28;;;;;;;6.95;5.57;;;;;;;;;;10053699;28;20070;-67
2022/07/24 13:50:24;;;;;;;7.05;5.95;;;;;;;;;;10057873;28;20122;-67
2022/07/24 13:55:21;;;;;;;6.30;5.72;;;;;;;;;;10060518;28;20043;-67
2022/07/24 14:00:17;;;;;;;8.63;6.20;;;;;;;;;;10047647;28;20134;-66
2022/07/24 14:05:13;;;;;;;6.70;6.10;;;;;;;;;;10058594;28;20074;-67
2022/07/24 14:10:09;;;;;;;6.63;6.03;;;;;;;;;;10043554;28;20103;-67
2022/07/24 14:15:08;;;;;;;7.00;6.25;;;;;;;;;;10050502;28;20052;-67
2022/07/24 14:20:07;;;;;;;8.45;6.03;;;;;;;;;;10040803;28;20047;-67
2022/07/24 14:25:04;;;;;;;8.15;6.70;;;;;;;;;;10041147;28;20083;-67
2022/07/24 14:30:01;;;;;;;7.63;6.35;;;;;;;;;;10041707;29;20052;-67
2022/07/24 14:34:57;;;;;;;6.88;5.93;;;;;;;;;;10056509;29;20078;-67
2022/07/24 14:39:53;;;;;;;6.82;6.18;;;;;;;;;;10072666;28;20139;-67
2022/07/24 14:44:50;;;;;;;9.88;6.45;;;;;;;;;;10054193;28;20510;-67
2022/07/24 14:49:46;;;;;;;7.43;6.22;;;;;;;;;;10064670;28;20099;-67
2022/07/24 14:54:43;;;;;;;6.40;5.80;;;;;;;;;;10053199;28;20054;-67
2022/07/24 14:59:40;;;;;;;6.60;6.00;;;;;;;;;;10054311;28;20086;-67
2022/07/24 15:04:36;;;;;;;6.50;5.85;;;;;;;;;;10050848;28;20117;-67
2022/07/24 15:09:32;;;;;;;7.00;6.25;;;;;;;;;;10054781;28;20052;-67
2022/07/24 15:14:29;;;;;;;6.43;5.32;;;;;;;;;;10050958;28;20051;-67
2022/07/24 15:19:25;;;;;;;6.03;5.50;;;;;;;;;;10040338;28;20499;-67
2022/07/24 15:24:22;;;;;;;6.47;5.72;;;;;;;;;;10047138;28;20050;-67
2022/07/24 15:29:21;;;;;;;7.85;5.97;;;;;;;;;;10038107;28;20126;-67
2022/07/24 15:34:18;;;;;;;6.05;5.38;;;;;;;;;;10040156;28;20130;-67
2022/07/24 15:39:15;;;;;;;7.10;5.70;;;;;;;;;;10037944;28;20048;-67
2022/07/24 15:44:11;;;;;;;6.47;5.88;;;;;;;;;;10047498;28;20074;-67
2022/07/24 15:49:08;;;;;;;7.78;7.05;;;;;;;;;;10076467;28;20067;-67
2022/07/24 15:54:05;;;;;;;6.10;5.50;;;;;;;;;;10054373;28;20051;-67
2022/07/24 15:59:02;;;;;;;6.35;5.72;;;;;;;;;;10075847;28;20051;-67
2022/07/24 16:03:58;;;;;;;6.22;5.63;;;;;;;;;;10048189;28;20043;-67
2022/07/24 16:08:55;;;;;;;7.07;6.10;;;;;;;;;;10060896;28;20103;-67
2022/07/24 16:13:51;;;;;;;8.73;5.45;;;;;;;;;;10043192;28;20070;-67
2022/07/24 16:18:47;;;;;;;6.47;5.93;;;;;;;;;;10049143;28;20094;-67
2022/07/24 16:23:44;;;;;;;6.28;5.68;;;;;;;;;;10042047;28;20654;-67
2022/07/24 16:28:40;;;;;;;6.35;5.75;;;;;;;;;;10048043;28;20526;-67
2022/07/24 16:33:36;;;;;;;5.68;5.15;;;;;;;;;;10040843;28;20130;-67
2022/07/24 16:38:38;;;;;;;6.97;5.75;;;;;;;;;;10040869;28;20426;-67
2022/07/24 16:43:34;;;;;;;11.20;7.45;;;;;;;;;;10040202;28;20584;-67
2022/07/24 16:48:31;;;;;;;6.63;5.93;;;;;;;;;;10074761;28;20066;-67
2022/07/24 16:53:27;;;;;;;7.00;6.13;;;;;;;;;;10061752;28;20054;-67
2022/07/24 16:58:23;;;;;;;6.82;6.22;;;;;;;;;;10074417;28;20047;-67
2022/07/24 17:03:20;;;;;;;8.05;7.32;;;;;;;;;;10042406;28;20538;-67
2022/07/24 17:08:16;;;;;;;7.32;6.68;;;;;;;;;;10074772;28;20064;-67
2022/07/24 17:13:13;;;;;;;8.13;6.30;;;;;;;;;;10038839;28;20529;-68
2022/07/24 17:18:10;;;;;;;9.70;6.72;;;;;;;;;;10068617;28;20071;-68
2022/07/24 17:23:08;;;;;;;7.78;6.30;;;;;;;;;;10035905;28;20503;-67
2022/07/24 17:28:05;;;;;;;8.27;6.80;;;;;;;;;;10056564;28;20047;-68
2022/07/24 17:33:01;;;;;;;6.82;5.93;;;;;;;;;;10043009;28;20048;-67
2022/07/24 17:37:58;;;;;;;12.05;6.70;;;;;;;;;;10081661;28;20051;-67
2022/07/24 17:42:54;;;;;;;6.68;6.00;;;;;;;;;;10060345;28;20075;-68
2022/07/24 17:47:50;;;;;;;7.50;6.00;;;;;;;;;;10081251;28;20110;-68
2022/07/24 17:52:47;;;;;;;6.70;6.10;;;;;;;;;;10081212;28;20094;-67
2022/07/24 17:57:43;;;;;;;6.55;5.95;;;;;;;;;;10081049;28;20472;-67
2022/07/24 18:02:40;;;;;;;7.38;6.60;;;;;;;;;;10056713;28;20130;-67
2022/07/24 18:07:36;;;;;;;9.02;6.22;;;;;;;;;;10075841;28;20562;-68
2022/07/24 18:12:33;;;;;;;7.00;6.30;;;;;;;;;;10041503;28;20537;-68
2022/07/24 18:17:29;;;;;;;7.45;5.95;;;;;;;;;;10067047;28;20071;-68
2022/07/24 18:22:25;;;;;;;6.55;5.85;;;;;;;;;;10041609;28;20514;-68
2022/07/24 18:27:22;;;;;;;6.70;5.90;;;;;;;;;;10061492;28;20631;-66
2022/07/24 18:32:18;;;;;;;6.90;6.20;;;;;;;;;;10040833;28;20087;-66
2022/07/24 18:37:14;;;;;;;8.48;6.57;;;;;;;;;;10060061;28;20521;-66
2022/07/24 18:42:11;;;;;;;9.93;5.68;;;;;;;;;;10040164;28;20071;-66
2022/07/24 18:47:09;;;;;;;7.13;6.10;;;;;;;;;;10045491;28;20080;-66
2022/07/24 18:52:05;;;;;;;6.43;5.82;;;;;;;;;;10040672;28;20506;-66
2022/07/24 18:57:02;;;;;;;8.10;6.10;;;;;;;;;;10071858;28;20442;-66
2022/07/24 19:01:58;;;;;;;6.57;5.75;;;;;;;;;;10062480;28;20138;-66
2022/07/24 19:06:55;;;;;;;6.85;6.10;;;;;;;;;;10070361;28;20506;-66
2022/07/24 19:11:51;;;;;;;8.63;5.90;;;;;;;;;;10058746;28;20473;-66
2022/07/24 19:16:48;;;;;;;6.85;5.82;;;;;;;;;;10068897;28;20067;-66
2022/07/24 19:21:44;;;;;;;8.50;5.85;;;;;;;;;;10051074;28;20090;-66
2022/07/24 19:26:41;;;;;;;8.93;6.10;;;;;;;;;;10067184;28;20082;-67
2022/07/24 19:31:37;;;;;;;7.57;6.68;;;;;;;;;;10076938;28;20498;-66
2022/07/24 19:36:34;;;;;;;7.50;5.93;;;;;;;;;;10075454;28;20047;-66
2022/07/24 19:41:30;;;;;;;7.70;6.32;;;;;;;;;;10038535;28;20078;-66
2022/07/24 19:46:26;;;;;;;10.77;7.30;;;;;;;;;;10062200;28;20484;-66
2022/07/24 19:51:22;;;;;;;11.40;7.93;;;;;;;;;;10036316;28;20043;-66
2022/07/24 19:56:39;;;;;;;9.75;7.63;;;;;;;;;;10051972;28;20510;-66
2022/07/24 20:01:35;;;;;;;8.90;7.28;;;;;;;;;;10036562;28;20134;-66
2022/07/24 20:06:31;;;;;;;11.05;7.97;;;;;;;;;;10050988;28;20044;-66
2022/07/24 20:11:28;;;;;;;8.73;7.63;;;;;;;;;;10037328;28;20059;-66
2022/07/24 20:16:24;;;;;;;15.35;8.88;;;;;;;;;;10042881;28;20138;-66
2022/07/24 20:21:20;;;;;;;11.13;8.48;;;;;;;;;;10037281;28;20063;-66
2022/07/24 20:26:17;;;;;;;11.75;8.18;;;;;;;;;;10063108;28;20135;-65
2022/07/24 20:31:13;;;;;;;10.88;7.70;;;;;;;;;;10064457;28;20095;-66
2022/07/24 20:36:09;;;;;;;12.23;7.93;;;;;;;;;;10061284;28;20545;-66
2022/07/24 20:41:06;;;;;;;12.68;8.73;;;;;;;;;;10064625;28;20136;-66
2022/07/24 20:46:03;;;;;;;11.75;8.65;;;;;;;;;;10059925;28;20126;-66
2022/07/24 20:51:00;;;;;;;12.88;9.55;;;;;;;;;;10051283;28;20052;-66
2022/07/24 20:55:57;;;;;;;14.38;9.07;;;;;;;;;;10059269;28;20118;-66
2022/07/24 21:00:53;;;;;;;12.45;9.68;;;;;;;;;;10048502;28;20043;-66
2022/07/24 21:05:57;;;;;;;12.38;9.10;;;;;;;;;;10059077;28;20566;-66
2022/07/24 21:10:53;;;;;;;11.40;8.70;;;;;;;;;;10037262;28;20051;-66
2022/07/24 21:15:49;;;;;;;12.15;8.32;;;;;;;;;;10050380;28;20047;-66
2022/07/24 21:20:46;;;;;;;12.50;8.23;;;;;;;;;;10035774;28;20459;-66
2022/07/24 21:25:42;;;;;;;10.70;8.52;;;;;;;;;;10057278;28;20039;-66
2022/07/24 21:30:39;;;;;;;11.85;9.07;;;;;;;;;;10074417;28;20108;-66
2022/07/24 21:35:35;;;;;;;10.82;8.10;;;;;;;;;;10068729;28;20083;-66
2022/07/24 21:40:32;;;;;;;12.68;8.45;;;;;;;;;;10073618;28;20083;-67
2022/07/24 21:45:28;;;;;;;10.35;8.48;;;;;;;;;;10062705;28;20047;-66
2022/07/24 21:50:24;;;;;;;12.15;8.27;;;;;;;;;;10074271;28;20113;-66
2022/07/24 21:55:23;;;;;;;12.95;8.55;;;;;;;;;;10059638;28;20158;-66
2022/07/24 22:00:21;;;;;;;12.27;8.48;;;;;;;;;;10073233;28;20048;-67
2022/07/24 22:05:18;;;;;;;10.73;8.27;;;;;;;;;;10059720;28;20048;-66
2022/07/24 22:10:14;;;;;;;11.15;8.82;;;;;;;;;;10067960;28;20427;-66
2022/07/24 22:15:10;;;;;;;12.18;8.75;;;;;;;;;;10058690;28;20624;-66
2022/07/24 22:20:07;;;;;;;12.38;8.48;;;;;;;;;;10063618;28;20148;-66
2022/07/24 22:25:04;;;;;;;13.70;9.23;;;;;;;;;;10057498;28;20098;-67
2022/07/24 22:30:01;;;;;;;15.00;9.55;;;;;;;;;;10059541;28;20083;-66
2022/07/24 22:34:57;;;;;;;10.48;8.52;;;;;;;;;;10056272;29;20086;-66
2022/07/24 22:39:55;;;;;;;11.40;9.05;;;;;;;;;;10044233;28;20107;-66
2022/07/24 22:44:52;;;;;;;11.40;8.45;;;;;;;;;;10044786;28;20063;-66
2022/07/24 22:49:49;;;;;;;10.32;8.45;;;;;;;;;;10040501;28;20127;-66
2022/07/24 22:54:46;;;;;;;13.18;9.70;;;;;;;;;;10054498;28;20250;-66
2022/07/24 22:59:43;;;;;;;12.65;9.27;;;;;;;;;;10079691;28;20545;-66
2022/07/24 23:04:40;;;;;;;11.00;9.25;;;;;;;;;;10053307;28;20142;-66
2022/07/24 23:09:36;;;;;;;15.10;9.63;;;;;;;;;;10073813;28;20277;-66
2022/07/24 23:14:33;;;;;;;10.30;8.85;;;;;;;;;;10051631;28;20436;-66
2022/07/24 23:19:29;;;;;;;13.02;7.88;;;;;;;;;;10065932;28;20082;-66
2022/07/24 23:24:25;;;;;;;10.13;7.72;;;;;;;;;;10049555;28;20138;-66
2022/07/24 23:29:22;;;;;;;9.93;7.82;;;;;;;;;;10077159;28;20059;-66
2022/07/24 23:34:18;;;;;;;11.52;8.45;;;;;;;;;;10072573;28;20146;-66
2022/07/24 23:39:14;;;;;;;10.82;8.13;;;;;;;;;;10038314;28;20110;-66
2022/07/24 23:44:11;;;;;;;13.02;8.93;;;;;;;;;;10040203;28;20103;-65
2022/07/24 23:49:07;;;;;;;10.80;7.88;;;;;;;;;;10037839;28;20079;-66
2022/07/24 23:54:03;;;;;;;11.57;8.63;;;;;;;;;;10046707;28;20047;-66
2022/07/24 23:59:00;;;;;;;10.05;7.32;;;;;;;;;;10076378;28;20079;-66
